Time;durP1;ratioP1;P1;durP2;ratioP2;P2;SDS_P1;SDS_P2;PMS_P1;PMS_P2;Temp;Humidity;BMP_temperature;BMP_pressure;BME280_temperature;BME280_humidity;BME280_pressure;Samples;Min_cycle;Max_cycle;Signal;HPM_P1;HPM_P2
2022/07/22 00:01:45;;;;;;;4.65;1.17;;;16.20;99.90;;;;;;5012137;28;20081;-39
2022/07/22 00:04:10;;;;;;;4.03;1.02;;;16.20;99.90;;;;;;5012409;28;20041;-37
2022/07/22 00:06:36;;;;;;;8.25;1.38;;;16.20;99.90;;;;;;5010934;28;20531;-37
2022/07/22 00:09:03;;;;;;;7.43;0.93;;;16.20;99.90;;;;;;5010979;28;20045;-37
2022/07/22 00:11:28;;;;;;;5.57;1.33;;;16.20;99.90;;;;;;5003309;28;20108;-38
2022/07/22 00:13:54;;;;;;;3.83;0.88;;;16.20;99.90;;;;;;5011437;28;20502;-38
2022/07/22 00:16:20;;;;;;;6.32;1.10;;;16.20;99.90;;;;;;4998935;28;20200;-39
2022/07/22 00:18:46;;;;;;;6.43;1.05;;;16.20;99.90;;;;;;5009872;28;20042;-36
2022/07/22 00:21:12;;;;;;;7.35;1.00;;;16.20;99.90;;;;;;5002344;28;20046;-38
2022/07/22 00:23:38;;;;;;;4.53;1.08;;;16.20;99.90;;;;;;5011861;28;20045;-38
2022/07/22 00:26:04;;;;;;;4.93;0.85;;;16.20;99.90;;;;;;5011371;28;20113;-38
2022/07/22 00:28:29;;;;;;;2.75;0.80;;;16.20;99.90;;;;;;5011659;28;20491;-40
2022/07/22 00:30:56;;;;;;;3.97;1.02;;;16.20;99.90;;;;;;5011419;28;20041;-38
2022/07/22 00:33:22;;;;;;;6.43;1.08;;;16.20;99.90;;;;;;5011768;28;20038;-37
2022/07/22 00:35:48;;;;;;;5.03;1.00;;;16.20;99.90;;;;;;5010009;28;20041;-39
2022/07/22 00:38:14;;;;;;;6.13;1.40;;;16.20;99.90;;;;;;5007702;28;20068;-38
2022/07/22 00:40:40;;;;;;;4.85;1.10;;;16.20;99.90;;;;;;5011741;28;20042;-39
2022/07/22 00:43:05;;;;;;;2.78;0.82;;;16.20;99.90;;;;;;5011646;28;20073;-40
2022/07/22 00:45:31;;;;;;;6.63;1.30;;;16.20;99.90;;;;;;5011749;28;20447;-37
2022/07/22 00:47:56;;;;;;;5.55;0.90;;;16.20;99.90;;;;;;5004077;28;20048;-37
2022/07/22 00:50:23;;;;;;;6.75;0.95;;;16.20;99.90;;;;;;5011360;28;20479;-37
2022/07/22 00:52:49;;;;;;;3.53;1.10;;;16.20;99.90;;;;;;5011439;28;20049;-39
2022/07/22 00:55:15;;;;;;;5.38;0.95;;;16.20;99.90;;;;;;5008402;28;20038;-39
2022/07/22 00:57:42;;;;;;;4.03;0.75;;;16.20;99.90;;;;;;5011130;28;20045;-37
2022/07/22 01:00:11;;;;;;;5.68;1.20;;;16.20;99.90;;;;;;5010883;28;20038;-38
2022/07/22 01:02:37;;;;;;;5.47;1.10;;;16.30;99.90;;;;;;5006767;28;20069;-37
2022/07/22 01:05:04;;;;;;;5.78;0.90;;;16.30;99.90;;;;;;5007107;28;20484;-39
2022/07/22 01:07:30;;;;;;;7.38;0.98;;;16.20;99.90;;;;;;5009535;28;20038;-38
2022/07/22 01:09:56;;;;;;;5.35;0.80;;;16.30;99.90;;;;;;5006253;28;20047;-37
2022/07/22 01:12:22;;;;;;;5.72;0.90;;;16.20;99.90;;;;;;5010690;28;20073;-38
2022/07/22 01:14:47;;;;;;;4.22;0.80;;;16.20;99.90;;;;;;5010593;28;20073;-38
2022/07/22 01:17:13;;;;;;;7.38;1.15;;;16.20;99.90;;;;;;5010610;28;20048;-37
2022/07/22 01:19:39;;;;;;;2.95;0.80;;;16.20;99.90;;;;;;5010842;28;20030;-38
2022/07/22 01:22:06;;;;;;;3.42;0.98;;;16.20;99.90;;;;;;5010691;28;20038;-38
2022/07/22 01:24:32;;;;;;;5.10;0.93;;;16.20;99.90;;;;;;5009163;28;20046;-38
2022/07/22 01:26:58;;;;;;;3.08;0.80;;;16.20;99.90;;;;;;5009189;28;20434;-37
2022/07/22 01:29:23;;;;;;;4.45;0.90;;;16.30;99.90;;;;;;5002577;28;20101;-38
2022/07/22 01:31:49;;;;;;;8.30;1.15;;;16.20;99.90;;;;;;5010726;28;20086;-40
2022/07/22 01:34:14;;;;;;;4.63;0.80;;;16.20;99.90;;;;;;5007714;28;20041;-37
2022/07/22 01:36:40;;;;;;;7.38;1.20;;;16.20;99.90;;;;;;5010391;28;20120;-38
2022/07/22 01:39:06;;;;;;;6.30;0.70;;;16.20;99.90;;;;;;5010404;28;20499;-40
2022/07/22 01:41:32;;;;;;;6.32;1.00;;;16.20;99.90;;;;;;5001856;28;20444;-37
2022/07/22 01:43:57;;;;;;;6.45;0.70;;;16.20;99.90;;;;;;5010328;28;20049;-38
2022/07/22 01:46:23;;;;;;;5.47;1.10;;;16.20;99.90;;;;;;5008289;28;20092;-38
2022/07/22 01:48:51;;;;;;;4.32;0.80;;;16.20;99.90;;;;;;5006913;28;20509;-39
2022/07/22 01:51:17;;;;;;;4.18;0.80;;;16.20;99.90;;;;;;5001369;28;20474;-37
2022/07/22 01:53:42;;;;;;;5.22;1.00;;;16.20;99.90;;;;;;5010614;28;20092;-38
2022/07/22 01:56:08;;;;;;;5.18;0.77;;;16.20;99.90;;;;;;5010013;28;20084;-38
2022/07/22 01:58:34;;;;;;;4.45;0.90;;;16.20;99.90;;;;;;5004164;28;20041;-37
2022/07/22 02:00:59;;;;;;;5.95;0.80;;;16.20;99.90;;;;;;5000375;28;20030;-38
2022/07/22 02:03:25;;;;;;;4.93;1.25;;;16.20;99.90;;;;;;5010174;28;20038;-40
2022/07/22 02:05:51;;;;;;;7.55;1.25;;;16.20;99.90;;;;;;5003563;28;20065;-38
2022/07/22 02:08:17;;;;;;;4.18;0.93;;;16.20;99.90;;;;;;5006000;28;20367;-40
2022/07/22 02:10:44;;;;;;;3.00;0.60;;;16.20;99.90;;;;;;5010178;28;20053;-37
2022/07/22 02:13:09;;;;;;;5.07;0.90;;;16.20;99.90;;;;;;5008135;28;20446;-38
2022/07/22 02:15:35;;;;;;;3.38;0.73;;;16.20;99.90;;;;;;4999903;28;20050;-37
2022/07/22 02:18:13;;;;;;;4.95;0.90;;;16.30;99.90;;;;;;5009880;28;20514;-38
2022/07/22 02:20:39;;;;;;;2.65;0.90;;;16.30;99.90;;;;;;5010114;28;20191;-39
2022/07/22 02:23:05;;;;;;;3.83;0.77;;;16.30;99.90;;;;;;5007646;28;20030;-37
2022/07/22 02:25:30;;;;;;;4.63;0.80;;;16.30;99.90;;;;;;5009891;28;20095;-40
2022/07/22 02:27:56;;;;;;;2.72;0.80;;;16.30;99.90;;;;;;5009744;28;20116;-38
2022/07/22 02:30:21;;;;;;;4.03;0.80;;;16.30;99.90;;;;;;5009761;28;20049;-37
2022/07/22 02:32:47;;;;;;;4.15;1.00;;;16.40;99.90;;;;;;5009908;28;20050;-38
2022/07/22 02:35:13;;;;;;;6.80;1.33;;;16.40;99.90;;;;;;5009949;28;20050;-38
2022/07/22 02:37:39;;;;;;;3.92;0.90;;;16.40;99.90;;;;;;5002249;28;20096;-38
2022/07/22 02:40:06;;;;;;;3.70;1.00;;;16.40;99.90;;;;;;5003324;28;20065;-37
2022/07/22 02:42:32;;;;;;;5.57;1.10;;;16.40;99.90;;;;;;5009503;28;20528;-38
2022/07/22 02:44:57;;;;;;;5.85;1.10;;;16.40;99.90;;;;;;5010082;28;20046;-38
2022/07/22 02:47:23;;;;;;;3.70;0.70;;;16.40;99.90;;;;;;5002283;28;20061;-37
2022/07/22 02:49:49;;;;;;;6.15;0.70;;;16.40;99.90;;;;;;5009932;28;20182;-39
2022/07/22 02:52:14;;;;;;;4.68;0.80;;;16.40;99.90;;;;;;5009644;28;20038;-38
2022/07/22 02:54:40;;;;;;;6.28;1.30;;;16.40;99.90;;;;;;5010067;28;20041;-38
2022/07/22 02:57:06;;;;;;;5.03;0.80;;;16.40;99.90;;;;;;5007146;28;20042;-38
2022/07/22 02:59:31;;;;;;;4.45;1.05;;;16.40;99.90;;;;;;5010011;28;20499;-38
2022/07/22 03:01:57;;;;;;;8.85;1.08;;;16.40;99.90;;;;;;5009415;28;20475;-38
2022/07/22 03:04:23;;;;;;;3.30;0.80;;;16.40;99.90;;;;;;5009642;28;20149;-38
2022/07/22 03:06:49;;;;;;;4.45;1.00;;;16.50;99.90;;;;;;5009170;28;20050;-38
2022/07/22 03:09:14;;;;;;;4.78;1.17;;;16.50;99.90;;;;;;5009686;28;20483;-38
2022/07/22 03:11:40;;;;;;;5.07;1.00;;;16.40;99.90;;;;;;4998163;28;20062;-37
2022/07/22 03:14:06;;;;;;;3.70;0.93;;;16.40;99.90;;;;;;5007893;28;20045;-38
2022/07/22 03:16:32;;;;;;;4.38;0.90;;;16.30;99.90;;;;;;5013026;28;20073;-38
2022/07/22 03:18:57;;;;;;;4.68;1.00;;;16.30;99.90;;;;;;5028266;28;20123;-38
2022/07/22 03:21:23;;;;;;;1.33;0.52;;;16.30;99.90;;;;;;5012814;28;20034;-38
2022/07/22 03:23:53;;;;;;;5.43;0.80;;;16.20;99.90;;;;;;5013103;28;20041;-38
2022/07/22 03:26:20;;;;;;;7.35;1.17;;;16.20;99.90;;;;;;5008147;28;20470;-38
2022/07/22 03:28:46;;;;;;;2.67;1.13;;;16.30;99.90;;;;;;5013069;28;20127;-37
2022/07/22 03:31:12;;;;;;;4.85;1.20;;;16.20;99.90;;;;;;5012859;28;20050;-37
2022/07/22 03:33:38;;;;;;;1.70;0.70;;;16.30;99.90;;;;;;5013117;28;20516;-38
2022/07/22 03:36:05;;;;;;;3.22;0.70;;;16.30;99.90;;;;;;5009441;28;20578;-38
2022/07/22 03:38:33;;;;;;;5.40;0.90;;;16.30;99.90;;;;;;5013148;28;20110;-38
2022/07/22 03:40:58;;;;;;;2.97;0.68;;;16.30;99.90;;;;;;5008594;28;20154;-38
2022/07/22 03:43:24;;;;;;;4.38;0.70;;;16.30;99.90;;;;;;5003712;28;20117;-39
2022/07/22 03:45:49;;;;;;;2.63;0.60;;;16.20;99.90;;;;;;5012324;28;20193;-38
2022/07/22 03:48:15;;;;;;;3.08;0.70;;;16.20;99.90;;;;;;5005883;28;20129;-40
2022/07/22 03:50:41;;;;;;;4.10;0.98;;;16.20;99.90;;;;;;5012610;28;20030;-38
2022/07/22 03:53:06;;;;;;;4.22;0.60;;;16.20;99.90;;;;;;5012176;28;20403;-38
2022/07/22 03:55:32;;;;;;;2.90;0.60;;;16.20;99.90;;;;;;5012839;28;20112;-37
2022/07/22 03:57:58;;;;;;;2.00;0.70;;;16.20;99.90;;;;;;5010318;28;20065;-39
2022/07/22 04:00:23;;;;;;;2.67;0.70;;;16.20;99.90;;;;;;5011943;28;20049;-40
2022/07/22 04:02:49;;;;;;;4.97;0.68;;;16.20;99.90;;;;;;5010573;28;20045;-37
2022/07/22 04:05:15;;;;;;;5.32;0.93;;;16.30;99.90;;;;;;5012189;28;20052;-40
2022/07/22 04:07:41;;;;;;;5.20;1.00;;;16.30;99.90;;;;;;5011962;28;20483;-38
2022/07/22 04:10:07;;;;;;;4.10;0.80;;;16.30;99.90;;;;;;5012009;28;20383;-39
2022/07/22 04:12:38;;;;;;;3.88;0.93;;;16.30;99.90;;;;;;5011886;28;20052;-37
2022/07/22 04:15:05;;;;;;;3.78;0.70;;;16.30;99.90;;;;;;5011684;28;20056;-37
2022/07/22 04:17:31;;;;;;;4.40;0.77;;;16.30;99.90;;;;;;5011881;28;20046;-38
2022/07/22 04:19:57;;;;;;;2.80;0.77;;;16.30;99.90;;;;;;5010479;28;20050;-37
2022/07/22 04:22:23;;;;;;;6.07;1.30;;;16.30;99.90;;;;;;5010081;28;20061;-40
2022/07/22 04:24:49;;;;;;;5.80;1.38;;;16.30;99.90;;;;;;5011577;28;20042;-37
2022/07/22 04:27:14;;;;;;;5.75;1.00;;;16.30;99.90;;;;;;5009214;28;20403;-38
2022/07/22 04:29:40;;;;;;;2.08;0.77;;;16.30;99.90;;;;;;5007374;28;20042;-38
2022/07/22 04:32:05;;;;;;;4.35;0.80;;;16.30;99.90;;;;;;5006356;28;20050;-38
2022/07/22 04:34:31;;;;;;;4.60;1.00;;;16.30;99.90;;;;;;5011660;28;20037;-37
2022/07/22 04:36:57;;;;;;;4.93;0.90;;;16.30;99.90;;;;;;5011506;28;20056;-38
2022/07/22 04:39:23;;;;;;;2.45;0.75;;;16.30;99.90;;;;;;5009349;28;20045;-38
2022/07/22 04:41:49;;;;;;;4.60;1.00;;;16.30;99.90;;;;;;5011549;28;20042;-38
2022/07/22 04:44:14;;;;;;;3.83;1.08;;;16.30;99.90;;;;;;5011784;28;20487;-38
2022/07/22 04:46:40;;;;;;;3.95;1.02;;;16.20;99.90;;;;;;5006921;28;20114;-40
2022/07/22 04:49:05;;;;;;;4.90;1.30;;;16.20;99.90;;;;;;5009140;28;20256;-37
2022/07/22 04:51:31;;;;;;;6.20;1.30;;;16.20;99.90;;;;;;5011077;28;20420;-39
2022/07/22 04:53:57;;;;;;;2.78;1.00;;;16.20;99.90;;;;;;5025196;28;20112;-37
2022/07/22 04:56:22;;;;;;;4.05;0.70;;;16.30;99.90;;;;;;5005521;28;20456;-38
2022/07/22 04:58:48;;;;;;;2.88;0.80;;;16.20;99.90;;;;;;5011100;28;20038;-37
2022/07/22 05:01:14;;;;;;;3.65;1.10;;;16.20;99.90;;;;;;5011152;28;20045;-37
2022/07/22 05:03:41;;;;;;;3.80;0.93;;;16.20;99.90;;;;;;5010107;28;20038;-38
2022/07/22 05:06:08;;;;;;;3.63;0.82;;;16.20;99.90;;;;;;5011026;28;20065;-38
2022/07/22 05:08:33;;;;;;;2.35;0.80;;;16.20;99.90;;;;;;5010032;28;20049;-38
2022/07/22 05:10:59;;;;;;;3.78;0.98;;;16.20;99.90;;;;;;5005359;28;20395;-37
2022/07/22 05:13:25;;;;;;;3.95;1.23;;;16.30;99.90;;;;;;5004270;28;20050;-38
2022/07/22 05:15:50;;;;;;;2.38;0.85;;;16.30;99.90;;;;;;5011183;28;20068;-38
2022/07/22 05:18:16;;;;;;;3.70;0.80;;;16.30;99.90;;;;;;5010929;28;20165;-38
2022/07/22 05:20:42;;;;;;;3.95;0.80;;;16.30;99.90;;;;;;5010991;28;20457;-37
2022/07/22 05:23:08;;;;;;;2.72;0.60;;;16.30;99.90;;;;;;5007167;28;20128;-38
2022/07/22 05:25:33;;;;;;;3.38;0.90;;;16.40;99.90;;;;;;5006228;28;20153;-37
2022/07/22 05:27:59;;;;;;;4.40;0.75;;;16.40;99.90;;;;;;5009801;28;20080;-38
2022/07/22 05:30:25;;;;;;;5.20;0.80;;;16.40;99.90;;;;;;5010656;28;20068;-38
2022/07/22 05:32:51;;;;;;;3.47;1.00;;;16.50;99.90;;;;;;5010690;28;20095;-37
2022/07/22 05:35:17;;;;;;;1.98;0.47;;;16.60;99.90;;;;;;5010473;28;20042;-38
2022/07/22 05:37:43;;;;;;;2.58;0.73;;;16.60;99.90;;;;;;5009693;28;20398;-38
2022/07/22 05:40:09;;;;;;;3.38;0.68;;;16.60;99.90;;;;;;5000386;28;20042;-38
2022/07/22 05:42:34;;;;;;;5.63;0.80;;;16.60;99.90;;;;;;5005396;28;20543;-37
2022/07/22 05:45:00;;;;;;;1.90;0.57;;;16.70;99.90;;;;;;5010878;28;20030;-38
2022/07/22 05:47:26;;;;;;;2.03;0.70;;;16.80;99.90;;;;;;5010334;28;20045;-38
2022/07/22 05:49:52;;;;;;;3.30;0.57;;;16.80;99.90;;;;;;5010638;28;20053;-38
2022/07/22 05:52:17;;;;;;;2.70;0.70;;;16.90;99.90;;;;;;5007180;28;20593;-38
2022/07/22 05:54:43;;;;;;;1.95;0.55;;;16.90;99.90;;;;;;5010549;28;20099;-38
2022/07/22 05:57:09;;;;;;;2.78;0.60;;;16.90;99.90;;;;;;5009960;28;20042;-37
2022/07/22 05:59:35;;;;;;;3.42;0.60;;;17.00;99.90;;;;;;5010547;28;20110;-38
2022/07/22 06:02:02;;;;;;;5.05;1.00;;;17.00;99.90;;;;;;5010184;28;20101;-38
2022/07/22 06:04:27;;;;;;;4.60;1.23;;;17.10;99.90;;;;;;5010301;28;20112;-38
2022/07/22 06:06:53;;;;;;;4.28;0.70;;;17.10;99.90;;;;;;5010032;28;20130;-38
2022/07/22 06:09:19;;;;;;;4.13;0.57;;;17.20;99.90;;;;;;5007688;28;20081;-37
2022/07/22 06:11:44;;;;;;;2.92;0.90;;;17.20;99.90;;;;;;5009780;28;20056;-38
2022/07/22 06:14:13;;;;;;;6.00;0.75;;;17.20;99.90;;;;;;5010052;28;20187;-38
2022/07/22 06:16:38;;;;;;;5.82;0.70;;;17.20;99.90;;;;;;5009865;28;20053;-37
2022/07/22 06:19:04;;;;;;;4.07;0.80;;;17.20;99.90;;;;;;5009813;28;20371;-38
2022/07/22 06:21:30;;;;;;;5.35;0.80;;;17.10;99.90;;;;;;5009979;28;20037;-38
2022/07/22 06:23:56;;;;;;;2.72;0.85;;;17.10;99.90;;;;;;5010033;28;20045;-38
2022/07/22 06:26:21;;;;;;;3.75;0.63;;;17.10;99.90;;;;;;5004528;28;20446;-39
2022/07/22 06:28:47;;;;;;;4.45;0.63;;;17.20;99.90;;;;;;5005252;28;20079;-37
2022/07/22 06:31:12;;;;;;;5.13;1.00;;;17.20;99.90;;;;;;5010036;28;20048;-37
2022/07/22 06:33:38;;;;;;;4.63;0.77;;;17.20;99.90;;;;;;5005463;28;20099;-38
2022/07/22 06:36:04;;;;;;;4.38;0.50;;;17.20;99.90;;;;;;5009371;28;20037;-37
2022/07/22 06:38:31;;;;;;;2.10;0.57;;;17.20;99.90;;;;;;5010022;28;20459;-37
2022/07/22 06:40:56;;;;;;;6.55;0.90;;;17.30;99.90;;;;;;5009592;28;20145;-38
2022/07/22 06:43:22;;;;;;;2.40;0.57;;;17.20;99.90;;;;;;5009888;28;20082;-37
2022/07/22 06:45:48;;;;;;;5.13;0.80;;;17.30;99.90;;;;;;4999305;28;20077;-40
2022/07/22 06:48:14;;;;;;;3.92;0.80;;;17.30;99.90;;;;;;5003835;28;20050;-37
2022/07/22 06:50:39;;;;;;;1.92;0.75;;;17.40;99.90;;;;;;5013935;28;20134;-37
2022/07/22 06:53:05;;;;;;;7.28;0.88;;;17.40;99.90;;;;;;5009157;28;20054;-37
2022/07/22 06:55:32;;;;;;;3.80;0.73;;;17.40;99.90;;;;;;5009130;28;20403;-38
2022/07/22 06:57:57;;;;;;;4.35;0.65;;;17.40;99.90;;;;;;5001438;28;20067;-38
2022/07/22 07:00:23;;;;;;;4.45;0.82;;;17.50;99.90;;;;;;5008483;28;20121;-39
2022/07/22 07:02:49;;;;;;;3.05;0.60;;;17.50;99.90;;;;;;5005215;28;20112;-40
2022/07/22 07:05:15;;;;;;;4.82;0.80;;;17.60;99.90;;;;;;5003830;28;20439;-37
2022/07/22 07:07:40;;;;;;;4.65;0.63;;;17.50;99.90;;;;;;5009998;28;20046;-37
2022/07/22 07:10:06;;;;;;;4.72;0.80;;;17.50;99.90;;;;;;5009000;28;20068;-37
2022/07/22 07:12:32;;;;;;;5.05;0.80;;;17.50;99.90;;;;;;5012499;28;20038;-38
2022/07/22 07:14:58;;;;;;;4.50;0.60;;;17.60;99.90;;;;;;5010318;28;20052;-38
2022/07/22 07:17:24;;;;;;;5.05;0.70;;;17.60;99.90;;;;;;5005939;28;20037;-38
2022/07/22 07:19:50;;;;;;;4.80;0.90;;;17.60;99.90;;;;;;5003813;28;20143;-37
2022/07/22 07:22:15;;;;;;;8.98;0.90;;;17.70;99.90;;;;;;5010316;28;20450;-37
2022/07/22 07:24:42;;;;;;;7.05;1.05;;;17.80;99.90;;;;;;5013107;28;20104;-40
2022/07/22 07:27:07;;;;;;;4.63;0.90;;;17.80;99.90;;;;;;5012767;28;20069;-38
2022/07/22 07:29:33;;;;;;;8.90;1.30;;;17.90;99.90;;;;;;5012972;28;20069;-38
2022/07/22 07:31:59;;;;;;;5.88;1.90;;;17.90;99.90;;;;;;5013299;28;20040;-38
2022/07/22 07:34:24;;;;;;;11.05;2.80;;;17.90;99.90;;;;;;5013149;28;20069;-37
2022/07/22 07:36:50;;;;;;;11.77;3.00;;;18.00;99.90;;;;;;5003469;28;20082;-37
2022/07/22 07:39:16;;;;;;;8.73;2.40;;;18.10;99.90;;;;;;5005044;28;20379;-38
2022/07/22 07:41:42;;;;;;;8.43;1.55;;;18.10;99.90;;;;;;5012883;28;20124;-39
2022/07/22 07:44:07;;;;;;;9.05;2.35;;;18.20;99.90;;;;;;5008101;28;20030;-37
2022/07/22 07:46:33;;;;;;;5.40;1.00;;;18.30;99.90;;;;;;5000094;28;20045;-40
2022/07/22 07:48:59;;;;;;;4.25;1.33;;;18.40;99.90;;;;;;5009412;28;20120;-40
2022/07/22 07:51:24;;;;;;;5.72;1.30;;;18.50;99.90;;;;;;5010983;28;20108;-37
2022/07/22 07:53:50;;;;;;;4.22;1.00;;;18.50;99.90;;;;;;5012494;28;20041;-37
2022/07/22 07:56:16;;;;;;;2.65;0.77;;;18.60;99.90;;;;;;5012402;28;20053;-38
2022/07/22 07:58:42;;;;;;;4.15;0.73;;;18.60;99.80;;;;;;5011891;28;20049;-37
2022/07/22 08:01:07;;;;;;;3.97;0.73;;;18.70;99.20;;;;;;5009562;28;20042;-37
2022/07/22 08:03:33;;;;;;;1.17;0.55;;;18.70;98.60;;;;;;5010021;28;20360;-38
2022/07/22 08:05:59;;;;;;;2.17;0.50;;;18.70;97.10;;;;;;5012248;28;20569;-38
2022/07/22 08:08:25;;;;;;;3.50;0.47;;;18.80;96.80;;;;;;5012302;28;20056;-37
2022/07/22 08:10:51;;;;;;;1.10;0.45;;;18.80;96.00;;;;;;5009886;28;20034;-38
2022/07/22 08:13:17;;;;;;;2.10;0.43;;;18.90;95.90;;;;;;5010652;28;20479;-38
2022/07/22 08:15:43;;;;;;;1.73;0.47;;;19.00;95.60;;;;;;5011983;28;20116;-38
2022/07/22 08:18:09;;;;;;;2.88;0.70;;;19.10;95.80;;;;;;5005904;28;20113;-38
2022/07/22 08:20:35;;;;;;;2.35;0.50;;;19.10;95.50;;;;;;5010714;28;20120;-37
2022/07/22 08:23:00;;;;;;;3.17;0.45;;;19.20;95.70;;;;;;5008611;28;20117;-39
2022/07/22 08:25:26;;;;;;;1.85;0.40;;;19.20;95.30;;;;;;5000200;28;20100;-38
2022/07/22 08:27:52;;;;;;;1.98;0.30;;;19.20;94.30;;;;;;5011936;28;20081;-38
2022/07/22 08:30:19;;;;;;;1.70;0.47;;;19.20;93.80;;;;;;5012049;28;20038;-38
2022/07/22 08:32:45;;;;;;;3.30;0.30;;;19.10;93.70;;;;;;4990280;28;20161;-38
2022/07/22 08:35:11;;;;;;;1.80;0.40;;;19.10;93.20;;;;;;5004023;28;20116;-37
2022/07/22 08:37:37;;;;;;;0.98;0.30;;;19.10;93.10;;;;;;5011713;28;20161;-38
2022/07/22 08:40:06;;;;;;;2.83;0.52;;;19.10;93.10;;;;;;5009424;28;20041;-37
2022/07/22 08:42:36;;;;;;;3.40;0.50;;;19.10;93.10;;;;;;5007131;28;20560;-39
2022/07/22 08:45:03;;;;;;;2.63;0.57;;;19.10;93.30;;;;;;5005666;28;20038;-38
2022/07/22 08:47:29;;;;;;;3.17;0.57;;;19.10;93.20;;;;;;5004987;28;20056;-37
2022/07/22 08:49:55;;;;;;;4.25;0.63;;;19.10;93.40;;;;;;5003626;28;20410;-38
2022/07/22 08:52:20;;;;;;;1.58;0.50;;;19.10;93.30;;;;;;5008921;28;20068;-41
2022/07/22 08:54:46;;;;;;;3.50;0.80;;;19.00;93.70;;;;;;5006853;28;20561;-37
2022/07/22 08:57:11;;;;;;;3.47;0.47;;;19.10;93.60;;;;;;5005517;28;20400;-40
2022/07/22 08:59:57;;;;;;;2.10;0.50;;;19.10;93.60;;;;;;5004624;28;20041;-39
2022/07/22 09:02:24;;;;;;;3.88;0.40;;;19.10;92.70;;;;;;5010043;28;20211;-38
2022/07/22 09:04:57;;;;;;;1.27;0.38;;;19.10;93.20;;;;;;5011574;28;20073;-40
2022/07/22 09:07:30;;;;;;;4.72;0.60;;;19.20;93.80;;;;;;5011072;28;20044;-38
2022/07/22 09:09:58;;;;;;;1.88;0.47;;;19.30;93.40;;;;;;5011324;28;20125;-35
2022/07/22 09:12:27;;;;;;;1.13;0.40;;;19.40;93.30;;;;;;5006840;28;20144;-37
2022/07/22 09:14:55;;;;;;;1.73;0.50;;;19.60;92.90;;;;;;5001287;28;20164;-38
2022/07/22 09:17:35;;;;;;;1.33;0.40;;;19.70;92.20;;;;;;5010943;28;20138;-38
2022/07/22 09:20:15;;;;;;;2.35;0.55;;;19.80;91.60;;;;;;5006498;28;20041;-37
2022/07/22 09:22:44;;;;;;;1.10;0.47;;;19.80;91.90;;;;;;5005341;28;20053;-37
2022/07/22 09:25:25;;;;;;;1.17;0.40;;;19.80;91.00;;;;;;5011085;28;20052;-39
2022/07/22 09:27:53;;;;;;;3.15;0.60;;;19.90;90.90;;;;;;5007348;28;20514;-37
2022/07/22 09:30:24;;;;;;;4.63;0.50;;;20.00;90.70;;;;;;4999677;28;20163;-37
2022/07/22 09:32:52;;;;;;;2.67;0.40;;;20.10;90.70;;;;;;5010642;28;20450;-38
2022/07/22 09:35:19;;;;;;;2.58;0.45;;;20.10;90.40;;;;;;5009320;28;20042;-38
2022/07/22 09:37:53;;;;;;;4.78;0.55;;;20.10;90.60;;;;;;5009076;28;20061;-38
2022/07/22 09:40:22;;;;;;;4.60;0.50;;;20.20;90.60;;;;;;5010864;28;20117;-38
2022/07/22 09:42:53;;;;;;;2.15;0.32;;;20.30;90.30;;;;;;5009125;28;20258;-38
2022/07/22 09:45:21;;;;;;;7.07;0.50;;;20.30;88.30;;;;;;5010680;28;20054;-38
2022/07/22 09:47:48;;;;;;;1.95;0.50;;;20.40;87.60;;;;;;5003691;28;20050;-38
2022/07/22 09:50:34;;;;;;;4.05;0.50;;;20.40;88.10;;;;;;5002457;28;20042;-38
2022/07/22 09:53:00;;;;;;;2.75;0.50;;;20.50;84.90;;;;;;5006587;28;20038;-38
2022/07/22 09:55:28;;;;;;;2.38;0.40;;;20.40;86.30;;;;;;5008107;28;20041;-37
2022/07/22 09:57:55;;;;;;;1.10;0.40;;;20.50;85.50;;;;;;5001144;28;20043;-42
2022/07/22 10:00:23;;;;;;;3.05;0.47;;;20.50;85.30;;;;;;5001446;28;20056;-37
2022/07/22 10:02:52;;;;;;;2.72;0.40;;;20.50;85.30;;;;;;5010428;28;20041;-40
2022/07/22 10:05:22;;;;;;;3.38;0.40;;;20.60;84.70;;;;;;5010166;28;20109;-40
2022/07/22 10:07:48;;;;;;;3.88;0.50;;;20.60;84.20;;;;;;5000175;28;20101;-38
2022/07/22 10:10:17;;;;;;;2.65;0.43;;;20.60;85.60;;;;;;5002738;28;20050;-39
2022/07/22 10:12:43;;;;;;;2.20;0.43;;;20.70;85.60;;;;;;5010119;28;20037;-38
2022/07/22 10:15:10;;;;;;;3.67;0.40;;;20.70;84.70;;;;;;5009740;28;20431;-40
2022/07/22 10:17:38;;;;;;;6.15;0.60;;;20.80;85.40;;;;;;5010376;28;20059;-36
2022/07/22 10:20:06;;;;;;;2.88;0.40;;;20.80;85.10;;;;;;5010154;28;20053;-38
2022/07/22 10:22:46;;;;;;;1.20;0.40;;;20.80;85.20;;;;;;5009464;28;20049;-38
2022/07/22 10:25:13;;;;;;;2.63;0.50;;;20.90;85.50;;;;;;5001611;28;20050;-40
2022/07/22 10:27:45;;;;;;;2.65;0.50;;;21.00;85.00;;;;;;5009854;28;20041;-38
2022/07/22 10:30:13;;;;;;;3.20;0.70;;;20.90;83.90;;;;;;5003641;28;20037;-37
2022/07/22 10:32:38;;;;;;;2.70;0.77;;;20.90;84.40;;;;;;5009822;28;20088;-38
2022/07/22 10:35:06;;;;;;;2.83;0.68;;;20.90;84.70;;;;;;5010277;28;20081;-38
2022/07/22 10:37:34;;;;;;;2.05;0.52;;;21.00;84.80;;;;;;5009697;28;20109;-37
2022/07/22 10:40:49;;;;;;;2.15;0.50;;;21.00;83.60;;;;;;4999609;28;20050;-38
2022/07/22 10:43:17;;;;;;;3.40;0.50;;;21.00;83.40;;;;;;5008682;28;20111;-38
2022/07/22 10:45:47;;;;;;;3.35;0.50;;;20.90;83.70;;;;;;5002277;28;20168;-39
2022/07/22 10:48:29;;;;;;;2.22;0.60;;;20.80;83.70;;;;;;4998567;28;20112;-37
2022/07/22 10:51:07;;;;;;;2.88;0.50;;;20.70;85.20;;;;;;5004035;28;20113;-40
2022/07/22 10:53:59;;;;;;;2.40;0.40;;;20.70;85.20;;;;;;5009690;28;20065;-43
2022/07/22 10:56:35;;;;;;;1.92;0.50;;;20.70;85.40;;;;;;5009339;28;20467;-39
2022/07/22 10:59:14;;;;;;;3.92;0.43;;;20.70;86.20;;;;;;5009863;28;20704;-38
2022/07/22 11:01:50;;;;;;;1.55;0.50;;;20.80;86.90;;;;;;4999360;28;20046;-39
2022/07/22 11:04:26;;;;;;;2.65;0.50;;;20.80;87.70;;;;;;5007457;28;20479;-38
2022/07/22 11:06:56;;;;;;;1.48;0.50;;;20.80;88.30;;;;;;5009359;28;20552;-37
2022/07/22 11:09:33;;;;;;;3.58;0.70;;;20.80;88.30;;;;;;5009807;28;20068;-40
2022/07/22 11:11:59;;;;;;;2.70;0.50;;;20.80;87.70;;;;;;5005768;28;20103;-36
2022/07/22 11:14:30;;;;;;;3.50;0.60;;;20.80;87.80;;;;;;5007800;28;20050;-40
2022/07/22 11:17:08;;;;;;;5.35;0.63;;;20.70;87.20;;;;;;5009312;28;20092;-40
2022/07/22 11:19:37;;;;;;;1.25;0.50;;;20.60;86.40;;;;;;5008383;28;20466;-38
2022/07/22 11:22:21;;;;;;;2.38;0.57;;;20.60;86.70;;;;;;5007181;28;20490;-38
2022/07/22 11:24:49;;;;;;;1.30;0.40;;;20.60;84.80;;;;;;5009506;28;20556;-38
2022/07/22 11:27:20;;;;;;;3.20;0.40;;;20.60;87.00;;;;;;5008817;28;20037;-38
2022/07/22 11:29:52;;;;;;;1.40;0.40;;;20.60;86.00;;;;;;5006904;28;20070;-38
2022/07/22 11:32:20;;;;;;;2.55;0.50;;;20.70;86.10;;;;;;5008815;28;20115;-37
2022/07/22 11:34:46;;;;;;;1.88;0.40;;;20.80;86.00;;;;;;5010604;28;20383;-38
2022/07/22 11:37:13;;;;;;;2.92;0.40;;;20.80;86.10;;;;;;5011924;28;20088;-37
2022/07/22 11:39:39;;;;;;;2.08;0.47;;;20.90;86.00;;;;;;5000379;28;20091;-39
2022/07/22 11:42:05;;;;;;;2.40;0.52;;;20.90;84.60;;;;;;5012581;28;20046;-38
2022/07/22 11:44:33;;;;;;;3.83;0.50;;;21.00;84.20;;;;;;5003826;28;20317;-38
2022/07/22 11:47:00;;;;;;;2.78;0.60;;;21.00;84.60;;;;;;5002765;28;20050;-38
2022/07/22 11:49:28;;;;;;;1.33;0.30;;;20.90;84.80;;;;;;5007545;28;20065;-37
2022/07/22 11:51:54;;;;;;;2.35;0.32;;;20.80;85.00;;;;;;5009376;28;20042;-39
2022/07/22 11:54:20;;;;;;;2.20;0.47;;;20.60;85.90;;;;;;5008324;28;20427;-38
2022/07/22 11:56:46;;;;;;;2.63;0.45;;;20.50;86.50;;;;;;5009887;28;20564;-40
2022/07/22 11:59:17;;;;;;;2.30;0.63;;;20.60;87.10;;;;;;5012586;28;20057;-37
2022/07/22 12:01:44;;;;;;;1.42;0.40;;;20.70;87.30;;;;;;5012438;28;20049;-38
2022/07/22 12:04:19;;;;;;;2.03;0.45;;;20.80;86.70;;;;;;5011375;28;20052;-39
2022/07/22 12:06:46;;;;;;;1.50;0.50;;;20.90;85.70;;;;;;5009236;28;20135;-39
2022/07/22 12:09:19;;;;;;;3.10;0.50;;;20.90;86.40;;;;;;5009504;28;20037;-37
2022/07/22 12:11:48;;;;;;;2.60;0.30;;;20.90;87.00;;;;;;5011993;28;20129;-39
2022/07/22 12:14:20;;;;;;;2.40;0.50;;;20.90;87.10;;;;;;5012064;28;20061;-38
2022/07/22 12:17:04;;;;;;;5.20;0.47;;;21.00;85.80;;;;;;5011774;28;20053;-38
2022/07/22 12:19:32;;;;;;;1.92;0.30;;;21.00;85.50;;;;;;5007405;28;20790;-37
2022/07/22 12:22:06;;;;;;;2.15;0.30;;;20.90;85.60;;;;;;5002565;28;20048;-38
2022/07/22 12:24:38;;;;;;;1.95;0.32;;;20.90;86.60;;;;;;5000170;28;20042;-38
2022/07/22 12:27:06;;;;;;;4.85;0.30;;;20.80;87.20;;;;;;5000908;28;20046;-37
2022/07/22 12:29:35;;;;;;;2.45;0.40;;;20.80;87.40;;;;;;5007179;28;20092;-37
2022/07/22 12:32:05;;;;;;;1.98;0.40;;;20.60;86.80;;;;;;5004335;28;20080;-38
2022/07/22 12:34:45;;;;;;;1.20;0.30;;;20.50;86.70;;;;;;5001865;28;20050;-39
2022/07/22 12:37:26;;;;;;;0.80;0.30;;;20.50;87.00;;;;;;5000726;28;20069;-37
2022/07/22 12:39:53;;;;;;;3.72;0.35;;;20.50;87.10;;;;;;5005705;28;20034;-37
2022/07/22 12:42:18;;;;;;;0.95;0.30;;;20.40;87.70;;;;;;5000002;28;20046;-37
2022/07/22 12:44:52;;;;;;;1.33;0.30;;;20.40;88.10;;;;;;5009025;28;20034;-37
2022/07/22 12:47:45;;;;;;;3.75;0.40;;;20.30;88.10;;;;;;5000965;28;20065;-37
2022/07/22 12:50:23;;;;;;;2.90;0.30;;;20.30;88.20;;;;;;4998866;28;20046;-37